sensor_id;sensor_type;location;lat;lon;timestamp;P1;durP1;ratioP1;P2;durP2;ratioP2
24259;SDS011;12384;48.112;18.418;2023-12-22T00:00:52;14.50;;;13.60;;
24259;SDS011;12384;48.112;18.418;2023-12-22T00:03:21;13.37;;;12.67;;
24259;SDS011;12384;48.112;18.418;2023-12-22T00:05:49;14.83;;;13.70;;
24259;SDS011;12384;48.112;18.418;2023-12-22T00:08:18;13.70;;;13.00;;
24259;SDS011;12384;48.112;18.418;2023-12-22T00:10:47;14.97;;;14.07;;
24259;SDS011;12384;48.112;18.418;2023-12-22T00:13:15;13.80;;;13.00;;
24259;SDS011;12384;48.112;18.418;2023-12-22T00:15:44;13.07;;;12.30;;
24259;SDS011;12384;48.112;18.418;2023-12-22T00:18:14;13.80;;;13.00;;
24259;SDS011;12384;48.112;18.418;2023-12-22T00:20:42;13.77;;;13.03;;
24259;SDS011;12384;48.112;18.418;2023-12-22T00:23:11;12.90;;;12.20;;
24259;SDS011;12384;48.112;18.418;2023-12-22T00:25:39;12.50;;;11.80;;
24259;SDS011;12384;48.112;18.418;2023-12-22T00:28:08;13.10;;;12.40;;
24259;SDS011;12384;48.112;18.418;2023-12-22T00:30:36;12.97;;;12.27;;
24259;SDS011;12384;48.112;18.418;2023-12-22T00:33:05;12.30;;;11.60;;
24259;SDS011;12384;48.112;18.418;2023-12-22T00:35:35;11.80;;;11.20;;
24259;SDS011;12384;48.112;18.418;2023-12-22T00:38:04;12.37;;;11.77;;
24259;SDS011;12384;48.112;18.418;2023-12-22T00:40:33;12.10;;;11.50;;
24259;SDS011;12384;48.112;18.418;2023-12-22T00:43:01;12.20;;;11.60;;
24259;SDS011;12384;48.112;18.418;2023-12-22T00:45:30;12.60;;;11.90;;
24259;SDS011;12384;48.112;18.418;2023-12-22T00:47:58;12.40;;;11.77;;
24259;SDS011;12384;48.112;18.418;2023-12-22T00:50:27;12.60;;;11.90;;
24259;SDS011;12384;48.112;18.418;2023-12-22T00:52:57;12.40;;;11.80;;
24259;SDS011;12384;48.112;18.418;2023-12-22T00:55:25;12.50;;;11.90;;
24259;SDS011;12384;48.112;18.418;2023-12-22T00:57:54;12.17;;;11.57;;
24259;SDS011;12384;48.112;18.418;2023-12-22T01:00:22;12.20;;;11.60;;
24259;SDS011;12384;48.112;18.418;2023-12-22T01:02:51;12.20;;;11.60;;
24259;SDS011;12384;48.112;18.418;2023-12-22T01:05:19;12.33;;;11.73;;
24259;SDS011;12384;48.112;18.418;2023-12-22T01:07:48;12.50;;;11.90;;
24259;SDS011;12384;48.112;18.418;2023-12-22T01:10:18;12.70;;;12.00;;
24259;SDS011;12384;48.112;18.418;2023-12-22T01:12:48;12.43;;;11.83;;
24259;SDS011;12384;48.112;18.418;2023-12-22T01:15:16;12.37;;;11.77;;
24259;SDS011;12384;48.112;18.418;2023-12-22T01:17:45;12.10;;;11.50;;
24259;SDS011;12384;48.112;18.418;2023-12-22T01:20:14;12.10;;;11.50;;
24259;SDS011;12384;48.112;18.418;2023-12-22T01:22:42;11.60;;;11.00;;
24259;SDS011;12384;48.112;18.418;2023-12-22T01:25:11;11.67;;;11.07;;
24259;SDS011;12384;48.112;18.418;2023-12-22T01:27:41;11.57;;;10.97;;
24259;SDS011;12384;48.112;18.418;2023-12-22T01:30:09;12.00;;;11.40;;
24259;SDS011;12384;48.112;18.418;2023-12-22T01:32:38;12.33;;;11.63;;
24259;SDS011;12384;48.112;18.418;2023-12-22T01:35:06;11.33;;;10.73;;
24259;SDS011;12384;48.112;18.418;2023-12-22T01:37:37;11.37;;;10.77;;
24259;SDS011;12384;48.112;18.418;2023-12-22T01:40:06;11.80;;;11.20;;
24259;SDS011;12384;48.112;18.418;2023-12-22T01:42:34;11.50;;;10.90;;
24259;SDS011;12384;48.112;18.418;2023-12-22T01:45:04;11.40;;;10.80;;
24259;SDS011;12384;48.112;18.418;2023-12-22T01:47:33;10.93;;;10.43;;
24259;SDS011;12384;48.112;18.418;2023-12-22T01:50:03;11.07;;;10.53;;
24259;SDS011;12384;48.112;18.418;2023-12-22T01:52:32;10.90;;;10.40;;
24259;SDS011;12384;48.112;18.418;2023-12-22T01:55:01;11.00;;;10.50;;
24259;SDS011;12384;48.112;18.418;2023-12-22T01:57:30;11.47;;;10.87;;
24259;SDS011;12384;48.112;18.418;2023-12-22T01:59:58;11.30;;;10.70;;
24259;SDS011;12384;48.112;18.418;2023-12-22T02:05:30;10.80;;;10.30;;
24259;SDS011;12384;48.112;18.418;2023-12-22T02:07:59;10.70;;;10.20;;
24259;SDS011;12384;48.112;18.418;2023-12-22T02:10:28;10.50;;;10.00;;
24259;SDS011;12384;48.112;18.418;2023-12-22T02:12:57;11.00;;;10.50;;
24259;SDS011;12384;48.112;18.418;2023-12-22T02:15:25;10.77;;;10.27;;
24259;SDS011;12384;48.112;18.418;2023-12-22T02:17:55;10.60;;;10.10;;
24259;SDS011;12384;48.112;18.418;2023-12-22T02:20:32;10.90;;;10.40;;
24259;SDS011;12384;48.112;18.418;2023-12-22T02:23:02;10.80;;;10.30;;
24259;SDS011;12384;48.112;18.418;2023-12-22T02:25:30;10.80;;;10.30;;
24259;SDS011;12384;48.112;18.418;2023-12-22T02:28:01;11.50;;;10.90;;
24259;SDS011;12384;48.112;18.418;2023-12-22T02:30:34;11.20;;;10.60;;
24259;SDS011;12384;48.112;18.418;2023-12-22T02:33:08;11.60;;;11.00;;
24259;SDS011;12384;48.112;18.418;2023-12-22T02:35:37;10.97;;;10.47;;
24259;SDS011;12384;48.112;18.418;2023-12-22T02:38:10;11.70;;;11.10;;
24259;SDS011;12384;48.112;18.418;2023-12-22T02:40:40;11.37;;;10.77;;
24259;SDS011;12384;48.112;18.418;2023-12-22T02:43:09;11.87;;;11.27;;
24259;SDS011;12384;48.112;18.418;2023-12-22T02:45:38;12.07;;;11.43;;
24259;SDS011;12384;48.112;18.418;2023-12-22T02:48:06;12.00;;;11.40;;
24259;SDS011;12384;48.112;18.418;2023-12-22T02:50:35;11.80;;;11.20;;
24259;SDS011;12384;48.112;18.418;2023-12-22T02:53:03;12.33;;;11.73;;
24259;SDS011;12384;48.112;18.418;2023-12-22T02:55:33;12.00;;;11.40;;
24259;SDS011;12384;48.112;18.418;2023-12-22T02:58:02;12.50;;;11.90;;
24259;SDS011;12384;48.112;18.418;2023-12-22T03:00:30;12.00;;;11.40;;
24259;SDS011;12384;48.112;18.418;2023-12-22T03:02:59;11.40;;;10.80;;
24259;SDS011;12384;48.112;18.418;2023-12-22T03:05:28;11.40;;;10.80;;
24259;SDS011;12384;48.112;18.418;2023-12-22T03:07:56;10.93;;;10.43;;
24259;SDS011;12384;48.112;18.418;2023-12-22T03:10:25;10.70;;;10.20;;
24259;SDS011;12384;48.112;18.418;2023-12-22T03:12:55;10.60;;;10.10;;
24259;SDS011;12384;48.112;18.418;2023-12-22T03:15:23;10.60;;;10.10;;
24259;SDS011;12384;48.112;18.418;2023-12-22T03:17:52;10.83;;;10.33;;
24259;SDS011;12384;48.112;18.418;2023-12-22T03:20:21;10.73;;;10.23;;
24259;SDS011;12384;48.112;18.418;2023-12-22T03:22:49;12.00;;;11.40;;
24259;SDS011;12384;48.112;18.418;2023-12-22T03:25:17;10.23;;;9.73;;
24259;SDS011;12384;48.112;18.418;2023-12-22T03:27:46;10.60;;;10.10;;
24259;SDS011;12384;48.112;18.418;2023-12-22T03:30:16;10.50;;;10.00;;
24259;SDS011;12384;48.112;18.418;2023-12-22T03:32:45;11.70;;;11.10;;
24259;SDS011;12384;48.112;18.418;2023-12-22T03:35:14;10.57;;;10.07;;
24259;SDS011;12384;48.112;18.418;2023-12-22T03:37:42;10.40;;;9.90;;
24259;SDS011;12384;48.112;18.418;2023-12-22T03:40:11;9.30;;;8.90;;
24259;SDS011;12384;48.112;18.418;2023-12-22T03:42:40;10.33;;;9.83;;
24259;SDS011;12384;48.112;18.418;2023-12-22T03:45:08;10.40;;;9.70;;
24259;SDS011;12384;48.112;18.418;2023-12-22T03:47:38;10.27;;;9.77;;
24259;SDS011;12384;48.112;18.418;2023-12-22T03:50:07;10.33;;;9.83;;
24259;SDS011;12384;48.112;18.418;2023-12-22T03:52:36;10.53;;;10.03;;
24259;SDS011;12384;48.112;18.418;2023-12-22T03:55:04;10.20;;;9.70;;
24259;SDS011;12384;48.112;18.418;2023-12-22T03:57:33;10.67;;;10.17;;
24259;SDS011;12384;48.112;18.418;2023-12-22T04:00:02;11.10;;;10.60;;
24259;SDS011;12384;48.112;18.418;2023-12-22T04:02:32;11.43;;;10.83;;
24259;SDS011;12384;48.112;18.418;2023-12-22T04:05:02;11.43;;;10.83;;
24259;SDS011;12384;48.112;18.418;2023-12-22T04:07:30;10.90;;;10.40;;
24259;SDS011;12384;48.112;18.418;2023-12-22T04:09:59;11.27;;;10.67;;
24259;SDS011;12384;48.112;18.418;2023-12-22T04:12:27;12.17;;;11.57;;
24259;SDS011;12384;48.112;18.418;2023-12-22T04:14:56;11.57;;;10.97;;
24259;SDS011;12384;48.112;18.418;2023-12-22T04:17:24;11.47;;;10.87;;
24259;SDS011;12384;48.112;18.418;2023-12-22T04:19:53;11.17;;;10.57;;
24259;SDS011;12384;48.112;18.418;2023-12-22T04:22:23;11.43;;;10.83;;
24259;SDS011;12384;48.112;18.418;2023-12-22T04:24:51;11.67;;;11.07;;
24259;SDS011;12384;48.112;18.418;2023-12-22T04:27:19;11.87;;;11.27;;
24259;SDS011;12384;48.112;18.418;2023-12-22T04:29:48;12.53;;;11.93;;
24259;SDS011;12384;48.112;18.418;2023-12-22T04:32:16;12.90;;;12.20;;
24259;SDS011;12384;48.112;18.418;2023-12-22T04:34:45;12.37;;;11.67;;
24259;SDS011;12384;48.112;18.418;2023-12-22T04:37:13;11.13;;;10.63;;
24259;SDS011;12384;48.112;18.418;2023-12-22T04:39:43;12.37;;;11.77;;
24259;SDS011;12384;48.112;18.418;2023-12-22T04:42:11;12.97;;;12.30;;
24259;SDS011;12384;48.112;18.418;2023-12-22T04:44:40;12.83;;;12.13;;
24259;SDS011;12384;48.112;18.418;2023-12-22T04:47:08;13.37;;;12.67;;
24259;SDS011;12384;48.112;18.418;2023-12-22T04:49:39;14.10;;;13.40;;
24259;SDS011;12384;48.112;18.418;2023-12-22T04:52:07;14.00;;;13.30;;
24259;SDS011;12384;48.112;18.418;2023-12-22T04:54:36;12.90;;;12.23;;
24259;SDS011;12384;48.112;18.418;2023-12-22T04:57:06;13.70;;;13.00;;
24259;SDS011;12384;48.112;18.418;2023-12-22T04:59:34;13.07;;;12.37;;
24259;SDS011;12384;48.112;18.418;2023-12-22T05:02:03;14.17;;;13.47;;
24259;SDS011;12384;48.112;18.418;2023-12-22T05:04:31;14.17;;;13.47;;
24259;SDS011;12384;48.112;18.418;2023-12-22T05:07:00;14.60;;;13.80;;
24259;SDS011;12384;48.112;18.418;2023-12-22T05:09:33;14.90;;;14.10;;
24259;SDS011;12384;48.112;18.418;2023-12-22T05:12:02;15.10;;;14.30;;
24259;SDS011;12384;48.112;18.418;2023-12-22T05:14:31;14.70;;;13.90;;
24259;SDS011;12384;48.112;18.418;2023-12-22T05:17:00;15.20;;;14.40;;
24259;SDS011;12384;48.112;18.418;2023-12-22T05:19:28;14.87;;;14.07;;
24259;SDS011;12384;48.112;18.418;2023-12-22T05:21:57;14.27;;;13.47;;
24259;SDS011;12384;48.112;18.418;2023-12-22T05:24:26;15.03;;;14.23;;
24259;SDS011;12384;48.112;18.418;2023-12-22T05:26:55;14.67;;;13.87;;
24259;SDS011;12384;48.112;18.418;2023-12-22T05:29:23;15.10;;;14.30;;
24259;SDS011;12384;48.112;18.418;2023-12-22T05:31:53;14.67;;;13.87;;
24259;SDS011;12384;48.112;18.418;2023-12-22T05:34:22;14.53;;;13.73;;
24259;SDS011;12384;48.112;18.418;2023-12-22T05:36:50;14.37;;;13.67;;
24259;SDS011;12384;48.112;18.418;2023-12-22T05:39:18;13.57;;;12.87;;
24259;SDS011;12384;48.112;18.418;2023-12-22T05:41:47;12.57;;;11.97;;
24259;SDS011;12384;48.112;18.418;2023-12-22T05:44:16;10.80;;;10.30;;
24259;SDS011;12384;48.112;18.418;2023-12-22T05:46:44;11.10;;;10.60;;
24259;SDS011;12384;48.112;18.418;2023-12-22T05:49:14;10.07;;;9.57;;
24259;SDS011;12384;48.112;18.418;2023-12-22T05:51:43;9.80;;;9.30;;
24259;SDS011;12384;48.112;18.418;2023-12-22T05:54:11;9.17;;;8.77;;
24259;SDS011;12384;48.112;18.418;2023-12-22T05:56:40;9.00;;;8.60;;
24259;SDS011;12384;48.112;18.418;2023-12-22T05:59:08;9.47;;;9.07;;
24259;SDS011;12384;48.112;18.418;2023-12-22T06:01:37;9.80;;;9.30;;
24259;SDS011;12384;48.112;18.418;2023-12-22T06:04:05;9.97;;;9.47;;
24259;SDS011;12384;48.112;18.418;2023-12-22T06:06:38;8.90;;;8.50;;
24259;SDS011;12384;48.112;18.418;2023-12-22T06:09:07;9.10;;;8.70;;
24259;SDS011;12384;48.112;18.418;2023-12-22T06:11:38;9.47;;;9.07;;
24259;SDS011;12384;48.112;18.418;2023-12-22T06:14:07;9.10;;;8.70;;
24259;SDS011;12384;48.112;18.418;2023-12-22T06:16:35;8.73;;;8.33;;
24259;SDS011;12384;48.112;18.418;2023-12-22T06:19:04;10.33;;;9.83;;
24259;SDS011;12384;48.112;18.418;2023-12-22T06:21:33;9.23;;;8.83;;
24259;SDS011;12384;48.112;18.418;2023-12-22T06:24:06;9.00;;;8.60;;
24259;SDS011;12384;48.112;18.418;2023-12-22T06:26:36;10.10;;;9.60;;
24259;SDS011;12384;48.112;18.418;2023-12-22T06:29:04;8.93;;;8.53;;
24259;SDS011;12384;48.112;18.418;2023-12-22T06:31:33;8.10;;;7.70;;
24259;SDS011;12384;48.112;18.418;2023-12-22T06:34:01;10.07;;;9.57;;
24259;SDS011;12384;48.112;18.418;2023-12-22T06:36:31;8.67;;;8.27;;
24259;SDS011;12384;48.112;18.418;2023-12-22T06:39:00;9.40;;;9.00;;
24259;SDS011;12384;48.112;18.418;2023-12-22T06:41:30;8.40;;;8.00;;
24259;SDS011;12384;48.112;18.418;2023-12-22T06:44:00;8.90;;;8.50;;
24259;SDS011;12384;48.112;18.418;2023-12-22T06:46:28;9.10;;;8.70;;
24259;SDS011;12384;48.112;18.418;2023-12-22T06:48:58;8.70;;;8.30;;
24259;SDS011;12384;48.112;18.418;2023-12-22T06:51:31;8.63;;;8.23;;
24259;SDS011;12384;48.112;18.418;2023-12-22T06:54:02;8.50;;;8.10;;
24259;SDS011;12384;48.112;18.418;2023-12-22T06:56:34;8.50;;;8.10;;
24259;SDS011;12384;48.112;18.418;2023-12-22T06:59:03;8.20;;;7.80;;
24259;SDS011;12384;48.112;18.418;2023-12-22T07:01:32;8.27;;;7.87;;
24259;SDS011;12384;48.112;18.418;2023-12-22T07:04:03;7.80;;;7.50;;
24259;SDS011;12384;48.112;18.418;2023-12-22T07:06:34;8.07;;;7.67;;
24259;SDS011;12384;48.112;18.418;2023-12-22T07:12:01;8.40;;;8.00;;
24259;SDS011;12384;48.112;18.418;2023-12-22T07:14:30;8.30;;;7.90;;
24259;SDS011;12384;48.112;18.418;2023-12-22T07:17:01;8.60;;;8.20;;
24259;SDS011;12384;48.112;18.418;2023-12-22T07:19:29;8.30;;;7.90;;
24259;SDS011;12384;48.112;18.418;2023-12-22T07:21:58;8.80;;;8.40;;
24259;SDS011;12384;48.112;18.418;2023-12-22T07:24:28;8.27;;;7.87;;
24259;SDS011;12384;48.112;18.418;2023-12-22T07:26:57;8.23;;;7.83;;
24259;SDS011;12384;48.112;18.418;2023-12-22T07:29:27;8.30;;;7.90;;
24259;SDS011;12384;48.112;18.418;2023-12-22T07:31:55;8.10;;;7.70;;
24259;SDS011;12384;48.112;18.418;2023-12-22T07:34:26;8.43;;;8.03;;
24259;SDS011;12384;48.112;18.418;2023-12-22T07:36:54;8.00;;;7.60;;
24259;SDS011;12384;48.112;18.418;2023-12-22T07:39:32;8.30;;;7.90;;
24259;SDS011;12384;48.112;18.418;2023-12-22T07:42:04;8.90;;;8.50;;
24259;SDS011;12384;48.112;18.418;2023-12-22T07:44:34;8.70;;;8.30;;
24259;SDS011;12384;48.112;18.418;2023-12-22T07:47:03;8.40;;;8.00;;
24259;SDS011;12384;48.112;18.418;2023-12-22T07:49:34;9.10;;;8.70;;
24259;SDS011;12384;48.112;18.418;2023-12-22T07:52:02;9.30;;;8.90;;
24259;SDS011;12384;48.112;18.418;2023-12-22T07:54:31;9.20;;;8.80;;
24259;SDS011;12384;48.112;18.418;2023-12-22T07:56:59;8.97;;;8.57;;
24259;SDS011;12384;48.112;18.418;2023-12-22T07:59:28;8.37;;;7.97;;
24259;SDS011;12384;48.112;18.418;2023-12-22T08:01:59;7.80;;;7.50;;
24259;SDS011;12384;48.112;18.418;2023-12-22T08:04:28;8.60;;;8.20;;
24259;SDS011;12384;48.112;18.418;2023-12-22T08:06:56;9.23;;;8.83;;
24259;SDS011;12384;48.112;18.418;2023-12-22T08:09:25;9.00;;;8.53;;
24259;SDS011;12384;48.112;18.418;2023-12-22T08:11:53;8.63;;;8.23;;
24259;SDS011;12384;48.112;18.418;2023-12-22T08:14:23;8.73;;;8.33;;
24259;SDS011;12384;48.112;18.418;2023-12-22T08:16:52;9.07;;;8.67;;
24259;SDS011;12384;48.112;18.418;2023-12-22T08:19:22;7.63;;;7.33;;
24259;SDS011;12384;48.112;18.418;2023-12-22T08:21:55;7.90;;;7.50;;
24259;SDS011;12384;48.112;18.418;2023-12-22T08:24:24;8.33;;;7.93;;
24259;SDS011;12384;48.112;18.418;2023-12-22T08:26:53;8.73;;;8.33;;
24259;SDS011;12384;48.112;18.418;2023-12-22T08:29:21;8.57;;;8.17;;
24259;SDS011;12384;48.112;18.418;2023-12-22T08:31:50;9.50;;;9.00;;
24259;SDS011;12384;48.112;18.418;2023-12-22T08:34:19;9.77;;;9.27;;
24259;SDS011;12384;48.112;18.418;2023-12-22T08:36:49;9.27;;;8.77;;
24259;SDS011;12384;48.112;18.418;2023-12-22T08:39:18;9.73;;;9.33;;
24259;SDS011;12384;48.112;18.418;2023-12-22T08:41:46;10.20;;;9.70;;
24259;SDS011;12384;48.112;18.418;2023-12-22T08:44:15;10.20;;;9.70;;
24259;SDS011;12384;48.112;18.418;2023-12-22T08:46:44;10.37;;;9.77;;
24259;SDS011;12384;48.112;18.418;2023-12-22T08:49:13;10.70;;;10.13;;
24259;SDS011;12384;48.112;18.418;2023-12-22T08:51:42;11.07;;;10.47;;
24259;SDS011;12384;48.112;18.418;2023-12-22T08:54:11;11.70;;;11.10;;
24259;SDS011;12384;48.112;18.418;2023-12-22T08:56:40;11.03;;;10.53;;
24259;SDS011;12384;48.112;18.418;2023-12-22T08:59:08;10.17;;;9.67;;
24259;SDS011;12384;48.112;18.418;2023-12-22T09:01:37;9.90;;;9.40;;
24259;SDS011;12384;48.112;18.418;2023-12-22T09:04:09;10.03;;;9.53;;
24259;SDS011;12384;48.112;18.418;2023-12-22T09:06:38;10.40;;;9.90;;
24259;SDS011;12384;48.112;18.418;2023-12-22T09:09:07;12.20;;;11.60;;
24259;SDS011;12384;48.112;18.418;2023-12-22T09:11:37;12.00;;;11.40;;
24259;SDS011;12384;48.112;18.418;2023-12-22T09:14:05;12.53;;;11.93;;
24259;SDS011;12384;48.112;18.418;2023-12-22T09:16:36;12.70;;;12.10;;
24259;SDS011;12384;48.112;18.418;2023-12-22T09:19:05;13.20;;;12.50;;
24259;SDS011;12384;48.112;18.418;2023-12-22T09:21:34;14.40;;;13.60;;
24259;SDS011;12384;48.112;18.418;2023-12-22T09:24:03;13.17;;;12.47;;
24259;SDS011;12384;48.112;18.418;2023-12-22T09:26:33;12.57;;;11.97;;
24259;SDS011;12384;48.112;18.418;2023-12-22T09:29:03;12.40;;;11.80;;
24259;SDS011;12384;48.112;18.418;2023-12-22T09:31:31;11.63;;;11.03;;
24259;SDS011;12384;48.112;18.418;2023-12-22T09:34:00;11.03;;;10.53;;
24259;SDS011;12384;48.112;18.418;2023-12-22T09:36:29;11.20;;;10.60;;
24259;SDS011;12384;48.112;18.418;2023-12-22T09:38:58;11.57;;;10.97;;
24259;SDS011;12384;48.112;18.418;2023-12-22T09:41:27;10.90;;;10.40;;
24259;SDS011;12384;48.112;18.418;2023-12-22T09:43:56;10.80;;;10.30;;
24259;SDS011;12384;48.112;18.418;2023-12-22T09:46:29;11.43;;;10.80;;
24259;SDS011;12384;48.112;18.418;2023-12-22T09:48:58;12.00;;;11.37;;
24259;SDS011;12384;48.112;18.418;2023-12-22T09:51:28;11.70;;;11.10;;
24259;SDS011;12384;48.112;18.418;2023-12-22T09:53:58;11.70;;;11.10;;
24259;SDS011;12384;48.112;18.418;2023-12-22T09:56:31;12.00;;;11.40;;
24259;SDS011;12384;48.112;18.418;2023-12-22T09:59:01;11.70;;;11.10;;
24259;SDS011;12384;48.112;18.418;2023-12-22T10:01:32;11.43;;;10.83;;
24259;SDS011;12384;48.112;18.418;2023-12-22T10:04:01;11.03;;;10.53;;
24259;SDS011;12384;48.112;18.418;2023-12-22T10:06:30;11.60;;;11.00;;
24259;SDS011;12384;48.112;18.418;2023-12-22T10:08:58;11.37;;;10.77;;
24259;SDS011;12384;48.112;18.418;2023-12-22T10:11:27;11.13;;;10.63;;
24259;SDS011;12384;48.112;18.418;2023-12-22T10:13:57;9.80;;;9.30;;
24259;SDS011;12384;48.112;18.418;2023-12-22T10:16:28;9.73;;;9.23;;
24259;SDS011;12384;48.112;18.418;2023-12-22T10:18:59;9.10;;;8.70;;
24259;SDS011;12384;48.112;18.418;2023-12-22T10:21:28;8.80;;;8.40;;
24259;SDS011;12384;48.112;18.418;2023-12-22T10:24:00;8.60;;;8.20;;
24259;SDS011;12384;48.112;18.418;2023-12-22T10:26:29;10.80;;;10.30;;
24259;SDS011;12384;48.112;18.418;2023-12-22T10:28:57;9.20;;;8.80;;
24259;SDS011;12384;48.112;18.418;2023-12-22T10:31:25;8.40;;;8.00;;
24259;SDS011;12384;48.112;18.418;2023-12-22T10:33:54;8.33;;;7.93;;
24259;SDS011;12384;48.112;18.418;2023-12-22T10:36:24;9.73;;;9.23;;
24259;SDS011;12384;48.112;18.418;2023-12-22T10:38:53;9.70;;;9.20;;
24259;SDS011;12384;48.112;18.418;2023-12-22T10:41:21;7.67;;;7.37;;
24259;SDS011;12384;48.112;18.418;2023-12-22T10:43:50;8.93;;;8.53;;
24259;SDS011;12384;48.112;18.418;2023-12-22T10:46:19;8.43;;;8.03;;
24259;SDS011;12384;48.112;18.418;2023-12-22T10:48:48;8.80;;;8.40;;
24259;SDS011;12384;48.112;18.418;2023-12-22T10:51:20;8.80;;;8.40;;
24259;SDS011;12384;48.112;18.418;2023-12-22T10:53:50;8.90;;;8.50;;
24259;SDS011;12384;48.112;18.418;2023-12-22T10:56:18;8.70;;;8.30;;
24259;SDS011;12384;48.112;18.418;2023-12-22T10:58:49;8.93;;;8.53;;
24259;SDS011;12384;48.112;18.418;2023-12-22T11:01:19;10.40;;;9.90;;
24259;SDS011;12384;48.112;18.418;2023-12-22T11:03:50;12.00;;;11.40;;
24259;SDS011;12384;48.112;18.418;2023-12-22T11:06:19;9.13;;;8.73;;
24259;SDS011;12384;48.112;18.418;2023-12-22T11:08:49;9.20;;;8.80;;
24259;SDS011;12384;48.112;18.418;2023-12-22T11:11:23;10.40;;;9.90;;
24259;SDS011;12384;48.112;18.418;2023-12-22T11:13:56;9.97;;;9.47;;
24259;SDS011;12384;48.112;18.418;2023-12-22T11:16:25;10.70;;;10.20;;
24259;SDS011;12384;48.112;18.418;2023-12-22T11:18:56;10.30;;;9.80;;
24259;SDS011;12384;48.112;18.418;2023-12-22T11:21:25;10.83;;;10.10;;
24259;SDS011;12384;48.112;18.418;2023-12-22T11:23:56;10.50;;;10.00;;
24259;SDS011;12384;48.112;18.418;2023-12-22T11:26:25;9.70;;;9.20;;
24259;SDS011;12384;48.112;18.418;2023-12-22T11:28:54;10.13;;;9.53;;
24259;SDS011;12384;48.112;18.418;2023-12-22T11:31:24;9.90;;;9.40;;
24259;SDS011;12384;48.112;18.418;2023-12-22T11:33:55;9.73;;;9.30;;
24259;SDS011;12384;48.112;18.418;2023-12-22T11:36:37;9.57;;;9.17;;
24259;SDS011;12384;48.112;18.418;2023-12-22T11:39:09;9.30;;;8.90;;
24259;SDS011;12384;48.112;18.418;2023-12-22T11:41:37;9.60;;;9.20;;
24259;SDS011;12384;48.112;18.418;2023-12-22T11:44:08;8.30;;;7.90;;
24259;SDS011;12384;48.112;18.418;2023-12-22T11:46:37;8.70;;;8.30;;
24259;SDS011;12384;48.112;18.418;2023-12-22T11:49:06;8.77;;;8.27;;
24259;SDS011;12384;48.112;18.418;2023-12-22T11:51:35;9.13;;;8.73;;
24259;SDS011;12384;48.112;18.418;2023-12-22T11:54:03;10.13;;;9.63;;
24259;SDS011;12384;48.112;18.418;2023-12-22T11:56:53;9.90;;;9.40;;
24259;SDS011;12384;48.112;18.418;2023-12-22T11:59:27;9.10;;;8.70;;
24259;SDS011;12384;48.112;18.418;2023-12-22T12:01:56;10.17;;;9.67;;
24259;SDS011;12384;48.112;18.418;2023-12-22T12:04:26;10.50;;;10.00;;
24259;SDS011;12384;48.112;18.418;2023-12-22T12:06:55;9.83;;;9.33;;
24259;SDS011;12384;48.112;18.418;2023-12-22T12:09:44;9.30;;;8.90;;
24259;SDS011;12384;48.112;18.418;2023-12-22T12:12:14;9.47;;;9.07;;
24259;SDS011;12384;48.112;18.418;2023-12-22T12:14:44;10.23;;;9.53;;
24259;SDS011;12384;48.112;18.418;2023-12-22T12:17:18;10.17;;;9.67;;
24259;SDS011;12384;48.112;18.418;2023-12-22T12:19:47;9.93;;;9.43;;
24259;SDS011;12384;48.112;18.418;2023-12-22T12:22:18;9.00;;;8.60;;
24259;SDS011;12384;48.112;18.418;2023-12-22T12:24:51;9.83;;;9.33;;
24259;SDS011;12384;48.112;18.418;2023-12-22T12:27:22;9.80;;;9.33;;
24259;SDS011;12384;48.112;18.418;2023-12-22T12:29:52;9.80;;;9.30;;
24259;SDS011;12384;48.112;18.418;2023-12-22T12:32:22;9.50;;;9.10;;
24259;SDS011;12384;48.112;18.418;2023-12-22T12:34:51;10.17;;;9.67;;
24259;SDS011;12384;48.112;18.418;2023-12-22T12:37:22;10.40;;;9.90;;
24259;SDS011;12384;48.112;18.418;2023-12-22T12:39:51;10.00;;;9.50;;
24259;SDS011;12384;48.112;18.418;2023-12-22T12:42:28;9.60;;;9.10;;
24259;SDS011;12384;48.112;18.418;2023-12-22T12:44:58;9.53;;;9.13;;
24259;SDS011;12384;48.112;18.418;2023-12-22T12:47:27;9.13;;;8.73;;
24259;SDS011;12384;48.112;18.418;2023-12-22T12:49:56;9.60;;;9.20;;
24259;SDS011;12384;48.112;18.418;2023-12-22T12:52:26;9.27;;;8.87;;
24259;SDS011;12384;48.112;18.418;2023-12-22T12:54:55;9.83;;;9.33;;
24259;SDS011;12384;48.112;18.418;2023-12-22T12:57:25;9.97;;;9.47;;
24259;SDS011;12384;48.112;18.418;2023-12-22T12:59:55;10.17;;;9.67;;
24259;SDS011;12384;48.112;18.418;2023-12-22T13:02:24;9.83;;;9.33;;
24259;SDS011;12384;48.112;18.418;2023-12-22T13:04:54;9.83;;;9.33;;
24259;SDS011;12384;48.112;18.418;2023-12-22T13:07:25;9.37;;;8.97;;
24259;SDS011;12384;48.112;18.418;2023-12-22T13:09:54;9.50;;;9.10;;
24259;SDS011;12384;48.112;18.418;2023-12-22T13:12:23;9.10;;;8.70;;
24259;SDS011;12384;48.112;18.418;2023-12-22T13:14:55;9.30;;;8.90;;
24259;SDS011;12384;48.112;18.418;2023-12-22T13:17:29;9.20;;;8.80;;
24259;SDS011;12384;48.112;18.418;2023-12-22T13:19:58;9.97;;;9.47;;
24259;SDS011;12384;48.112;18.418;2023-12-22T13:22:27;9.30;;;8.90;;
24259;SDS011;12384;48.112;18.418;2023-12-22T13:24:56;8.97;;;8.57;;
24259;SDS011;12384;48.112;18.418;2023-12-22T13:27:25;9.60;;;9.20;;
24259;SDS011;12384;48.112;18.418;2023-12-22T13:29:55;9.63;;;9.20;;
24259;SDS011;12384;48.112;18.418;2023-12-22T13:32:24;9.17;;;8.77;;
24259;SDS011;12384;48.112;18.418;2023-12-22T13:34:54;8.90;;;8.50;;
24259;SDS011;12384;48.112;18.418;2023-12-22T13:37:23;8.50;;;8.10;;
24259;SDS011;12384;48.112;18.418;2023-12-22T13:39:54;8.70;;;8.30;;
24259;SDS011;12384;48.112;18.418;2023-12-22T13:42:22;9.13;;;8.73;;
24259;SDS011;12384;48.112;18.418;2023-12-22T13:44:51;8.43;;;8.03;;
24259;SDS011;12384;48.112;18.418;2023-12-22T13:47:21;8.57;;;8.17;;
24259;SDS011;12384;48.112;18.418;2023-12-22T13:49:54;8.50;;;8.10;;
24259;SDS011;12384;48.112;18.418;2023-12-22T13:52:24;8.60;;;8.20;;
24259;SDS011;12384;48.112;18.418;2023-12-22T13:54:54;9.27;;;8.87;;
24259;SDS011;12384;48.112;18.418;2023-12-22T13:57:25;9.20;;;8.80;;
24259;SDS011;12384;48.112;18.418;2023-12-22T13:59:54;8.90;;;8.50;;
24259;SDS011;12384;48.112;18.418;2023-12-22T14:02:24;8.93;;;8.53;;
24259;SDS011;12384;48.112;18.418;2023-12-22T14:04:52;9.10;;;8.70;;
24259;SDS011;12384;48.112;18.418;2023-12-22T14:07:21;9.80;;;9.30;;
24259;SDS011;12384;48.112;18.418;2023-12-22T14:09:49;9.30;;;8.90;;
24259;SDS011;12384;48.112;18.418;2023-12-22T14:12:18;10.00;;;9.30;;
24259;SDS011;12384;48.112;18.418;2023-12-22T14:14:55;9.53;;;9.03;;
24259;SDS011;12384;48.112;18.418;2023-12-22T14:17:25;10.37;;;9.87;;
24259;SDS011;12384;48.112;18.418;2023-12-22T14:19:55;10.40;;;9.90;;
24259;SDS011;12384;48.112;18.418;2023-12-22T14:22:24;10.40;;;9.90;;
24259;SDS011;12384;48.112;18.418;2023-12-22T14:24:53;10.27;;;9.77;;
24259;SDS011;12384;48.112;18.418;2023-12-22T14:27:22;9.43;;;9.03;;
24259;SDS011;12384;48.112;18.418;2023-12-22T14:29:51;10.20;;;9.70;;
24259;SDS011;12384;48.112;18.418;2023-12-22T14:32:20;9.83;;;9.37;;
24259;SDS011;12384;48.112;18.418;2023-12-22T14:34:50;9.57;;;9.17;;
24259;SDS011;12384;48.112;18.418;2023-12-22T14:37:19;9.43;;;9.03;;
24259;SDS011;12384;48.112;18.418;2023-12-22T14:39:48;8.37;;;7.97;;